Time;durP1;ratioP1;P1;durP2;ratioP2;P2;SDS_P1;SDS_P2;PMS_P1;PMS_P2;Temp;Humidity;BMP_temperature;BMP_pressure;BME280_temperature;BME280_humidity;BME280_pressure;Samples;Min_cycle;Max_cycle;Signal;HPM_P1;HPM_P2
2023/01/23 00:02:01;;;;;;;39.75;23.70;;;;;;;0.62;100.00;103439.44;5249823;28;20030;-80
2023/01/23 00:04:33;;;;;;;42.75;23.13;;;;;;;0.62;100.00;103432.41;5246962;28;20390;-80
2023/01/23 00:07:04;;;;;;;43.80;24.98;;;;;;;0.60;100.00;103433.28;5255440;28;20391;-80
2023/01/23 00:09:35;;;;;;;43.22;24.67;;;;;;;0.56;100.00;103435.97;5257233;28;20103;-80
2023/01/23 00:12:07;;;;;;;40.80;24.67;;;;;;;0.55;100.00;103435.97;5258025;28;20022;-80
2023/01/23 00:14:38;;;;;;;39.65;24.35;;;;;;;0.50;100.00;103430.75;5256928;28;20079;-80
2023/01/23 00:17:09;;;;;;;44.58;25.15;;;;;;;0.49;100.00;103426.41;5257396;28;20431;-80
2023/01/23 00:19:40;;;;;;;47.25;25.88;;;;;;;0.50;100.00;103432.53;5258375;28;20478;-80
2023/01/23 00:22:14;;;;;;;45.08;24.40;;;;;;;0.49;100.00;103433.41;5256822;28;20398;-80
2023/01/23 00:24:45;;;;;;;42.60;24.25;;;;;;;0.47;100.00;103435.19;5258396;28;20115;-81
2023/01/23 00:27:17;;;;;;;42.17;25.17;;;;;;;0.49;100.00;103443.91;5257780;28;20018;-80
2023/01/23 00:29:51;;;;;;;42.47;25.70;;;;;;;0.51;100.00;103432.53;5257872;28;20035;-80
2023/01/23 00:32:23;;;;;;;45.95;26.20;;;;;;;0.53;100.00;103438.63;5253739;28;20088;-80
2023/01/23 00:34:54;;;;;;;40.75;25.48;;;;;;;0.56;100.00;103440.34;5256314;28;20430;-80
2023/01/23 00:37:25;;;;;;;47.25;25.98;;;;;;;0.59;100.00;103453.44;5238331;28;20018;-80
2023/01/23 00:39:56;;;;;;;45.97;26.60;;;;;;;0.64;100.00;103450.78;5248222;28;20137;-80
2023/01/23 00:42:28;;;;;;;45.13;24.98;;;;;;;0.47;100.00;103461.44;5250959;28;20021;-80
2023/01/23 00:44:59;;;;;;;46.40;25.50;;;;;;;0.57;100.00;103455.22;5259493;28;20551;-80
2023/01/23 00:47:31;;;;;;;44.38;23.63;;;;;;;0.56;100.00;103457.00;5258995;28;20022;-80
2023/01/23 00:50:02;;;;;;;45.33;25.38;;;;;;;0.56;100.00;103454.38;5259347;28;20045;-80
2023/01/23 00:52:34;;;;;;;44.17;24.17;;;;;;;0.61;100.00;103458.69;5255728;28;20034;-80
2023/01/23 00:55:06;;;;;;;43.38;23.63;;;;;;;0.54;100.00;103456.13;5258037;28;20068;-81
2023/01/23 00:57:37;;;;;;;41.63;24.50;;;;;;;0.54;100.00;103455.25;5257032;28;20095;-81
2023/01/23 01:00:09;;;;;;;44.60;24.52;;;;;;;0.54;100.00;103453.50;5246918;28;20025;-81
2023/01/23 01:02:40;;;;;;;39.08;24.08;;;;;;;0.68;100.00;103449.88;5256151;28;20032;-81
2023/01/23 01:05:11;;;;;;;41.70;24.90;;;;;;;0.68;100.00;103445.47;5259664;28;20044;-81
2023/01/23 01:07:43;;;;;;;43.28;24.83;;;;;;;0.67;100.00;103450.78;5260349;28;20033;-80
2023/01/23 01:10:15;;;;;;;38.67;23.90;;;;;;;0.60;100.00;103447.31;5252212;28;20843;-80
2023/01/23 01:12:46;;;;;;;40.33;23.83;;;;;;;0.62;100.00;103442.91;5258238;28;20037;-80
2023/01/23 01:15:18;;;;;;;46.85;23.83;;;;;;;0.55;100.00;103449.97;5258112;28;20033;-80
2023/01/23 01:17:49;;;;;;;37.42;22.58;;;;;;;0.67;100.00;103456.03;5258497;28;20172;-80
2023/01/23 01:20:22;;;;;;;41.45;23.83;;;;;;;0.61;100.00;103449.03;5244454;28;20458;-80
2023/01/23 01:22:56;;;;;;;42.90;22.02;;;;;;;0.61;100.00;103450.81;5259197;28;20025;-80
2023/01/23 01:25:29;;;;;;;40.38;24.27;;;;;;;0.60;100.00;103454.31;5255365;28;20057;-80
2023/01/23 01:28:00;;;;;;;37.85;23.38;;;;;;;0.62;100.00;103453.44;5260093;28;20029;-80
2023/01/23 01:30:32;;;;;;;39.42;23.25;;;;;;;0.65;100.00;103461.28;5261826;28;20022;-80
2023/01/23 01:33:03;;;;;;;39.10;23.52;;;;;;;0.68;100.00;103457.75;5260238;28;20390;-79
2023/01/23 01:35:35;;;;;;;42.05;23.40;;;;;;;0.68;100.00;103465.63;5260607;28;20037;-79
2023/01/23 01:38:07;;;;;;;40.20;22.55;;;;;;;0.73;100.00;103462.06;5260454;28;20351;-79
2023/01/23 01:40:39;;;;;;;40.83;22.45;;;;;;;0.76;100.00;103463.81;5259703;28;20300;-79
2023/01/23 01:43:19;;;;;;;40.10;23.13;;;;;;;0.74;100.00;103466.44;5259328;28;20033;-80
2023/01/23 01:46:13;;;;;;;36.05;22.05;;;;;;;0.74;100.00;103466.44;5259339;28;20131;-79
2023/01/23 01:48:56;;;;;;;41.28;22.67;;;;;;;0.65;100.00;103463.91;5255224;28;20051;-80
2023/01/23 01:51:36;;;;;;;39.17;22.77;;;;;;;0.67;100.00;103463.91;5261298;28;20037;-80
2023/01/23 01:54:15;;;;;;;38.50;23.67;;;;;;;0.62;100.00;103473.59;5249241;28;20021;-80
2023/01/23 01:57:22;;;;;;;40.33;23.00;;;;;;;0.68;100.00;103463.88;5259876;28;20029;-80
2023/01/23 02:00:16;;;;;;;45.00;25.10;;;;;;;0.66;100.00;103463.00;5256635;28;20076;-80
2023/01/23 02:03:00;;;;;;;44.75;22.50;;;;;;;0.73;100.00;103459.44;5257546;28;20113;-80
2023/01/23 02:05:35;;;;;;;39.92;23.48;;;;;;;0.62;100.00;103457.81;5259371;28;20619;-80
2023/01/23 02:08:28;;;;;;;40.85;22.63;;;;;;;0.72;100.00;103457.72;5259915;28;20085;-80
2023/01/23 02:11:02;;;;;;;41.28;22.60;;;;;;;0.63;100.00;103456.91;5259265;28;20031;-80
2023/01/23 02:13:37;;;;;;;38.13;23.70;;;;;;;0.63;100.00;103459.53;5252280;28;21897;-80
2023/01/23 02:16:12;;;;;;;40.72;23.38;;;;;;;0.65;100.00;103460.41;5257810;28;20356;-80
2023/01/23 02:18:52;;;;;;;42.00;23.52;;;;;;;0.69;100.00;103457.75;5255899;28;20565;-80
2023/01/23 02:21:24;;;;;;;43.58;23.40;;;;;;;0.57;100.00;103461.34;5245617;28;20046;-80
2023/01/23 02:24:21;;;;;;;43.05;24.35;;;;;;;0.61;100.00;103467.44;5255106;28;20099;-80
2023/01/23 02:26:52;;;;;;;39.97;24.58;;;;;;;0.64;100.00;103462.16;5253351;28;20038;-80
2023/01/23 02:29:24;;;;;;;41.13;23.65;;;;;;;0.73;100.00;103458.56;5249206;28;20037;-79
2023/01/23 02:31:55;;;;;;;37.20;22.20;;;;;;;0.56;100.00;103463.97;5254480;28;20494;-79
2023/01/23 02:34:28;;;;;;;38.95;23.73;;;;;;;0.59;100.00;103469.22;5250369;28;20018;-79
2023/01/23 02:37:00;;;;;;;43.00;24.25;;;;;;;0.57;100.00;103463.97;5253232;28;20033;-80
2023/01/23 02:39:32;;;;;;;40.92;23.95;;;;;;;0.65;100.00;103463.91;5249359;28;21370;-80
2023/01/23 02:42:04;;;;;;;40.65;23.85;;;;;;;0.73;100.00;103461.22;5254535;28;20496;-80
2023/01/23 02:44:36;;;;;;;39.78;23.83;;;;;;;0.67;100.00;103462.13;5241163;28;20037;-80
2023/01/23 02:47:11;;;;;;;45.00;23.30;;;;;;;0.67;100.00;103456.03;5253854;28;20033;-80
2023/01/23 02:49:42;;;;;;;44.65;24.58;;;;;;;0.73;100.00;103458.56;5238961;28;20041;-80
2023/01/23 02:52:15;;;;;;;41.25;22.83;;;;;;;0.66;100.00;103454.28;5234337;28;20026;-80
2023/01/23 02:54:46;;;;;;;50.97;26.58;;;;;;;0.70;100.00;103462.13;5242454;28;20105;-80
2023/01/23 02:57:17;;;;;;;45.17;24.98;;;;;;;0.65;100.00;103456.03;5236422;28;20034;-80
2023/01/23 03:02:39;;;;;;;42.88;24.80;;;;;;;0.64;100.00;103467.41;5241228;28;20546;-80
2023/01/23 03:05:10;;;;;;;42.55;24.35;;;;;;;0.63;100.00;103465.69;5244273;28;20129;-80
2023/01/23 03:07:42;;;;;;;41.88;24.38;;;;;;;0.67;100.00;103464.78;5246228;28;20105;-80
2023/01/23 03:10:13;;;;;;;40.13;22.45;;;;;;;0.59;100.00;103460.47;5247811;28;20057;-80
2023/01/23 03:12:44;;;;;;;47.20;24.30;;;;;;;0.61;100.00;103461.31;5240894;28;20120;-80
2023/01/23 03:15:16;;;;;;;41.63;23.55;;;;;;;0.57;100.00;103473.59;5244731;28;20017;-80
2023/01/23 03:17:47;;;;;;;41.05;23.25;;;;;;;0.62;100.00;103463.94;5250510;28;20447;-80
2023/01/23 03:20:19;;;;;;;43.33;23.23;;;;;;;0.67;100.00;103461.28;5253072;28;20052;-80
2023/01/23 03:22:50;;;;;;;46.97;25.50;;;;;;;0.62;100.00;103465.69;5240428;28;20053;-80
2023/01/23 03:25:21;;;;;;;42.63;24.52;;;;;;;0.57;100.00;103474.47;5253637;28;20100;-80
2023/01/23 03:27:53;;;;;;;47.28;24.80;;;;;;;0.62;100.00;103465.69;5234212;28;20029;-80
2023/01/23 03:30:24;;;;;;;48.00;24.88;;;;;;;0.66;100.00;103476.16;5237062;28;20026;-80
2023/01/23 03:32:55;;;;;;;43.55;24.08;;;;;;;0.61;100.00;103477.09;5233456;28;20026;-80
2023/01/23 03:35:27;;;;;;;39.58;22.60;;;;;;;0.61;100.00;103479.72;5235135;28;20026;-80
2023/01/23 03:37:59;;;;;;;45.83;24.08;;;;;;;0.63;100.00;103477.94;5234929;28;20049;-80
2023/01/23 03:43:20;;;;;;;47.75;24.88;;;;;;;0.59;100.00;103474.47;5235785;28;20034;-80
2023/01/23 03:45:51;;;;;;;40.30;22.50;;;;;;;0.60;100.00;103477.94;5237213;28;20101;-80
2023/01/23 03:48:23;;;;;;;43.60;25.70;;;;;;;0.62;100.00;103476.22;5237098;28;20026;-80
2023/01/23 03:50:54;;;;;;;44.55;23.60;;;;;;;0.63;100.00;103475.31;5236261;28;20391;-80
2023/01/23 03:53:25;;;;;;;43.75;23.73;;;;;;;0.61;100.00;103477.09;5235114;28;22783;-80
2023/01/23 03:55:56;;;;;;;43.33;24.65;;;;;;;0.62;100.00;103476.22;5237952;28;20041;-80
2023/01/23 03:58:29;;;;;;;45.35;24.38;;;;;;;0.66;100.00;103481.41;5234056;28;20037;-79
2023/01/23 04:01:04;;;;;;;46.42;24.42;;;;;;;0.71;100.00;103478.75;5233875;28;20056;-80
2023/01/23 04:03:36;;;;;;;45.33;23.45;;;;;;;0.57;100.00;103471.84;5234292;28;20049;-80
2023/01/23 04:06:07;;;;;;;47.35;25.48;;;;;;;0.67;100.00;103477.91;5234440;28;20461;-80
2023/01/23 04:08:38;;;;;;;45.00;24.80;;;;;;;0.67;100.00;103464.78;5238108;28;20117;-80
2023/01/23 04:11:10;;;;;;;46.50;25.45;;;;;;;0.71;100.00;103465.59;5235103;28;20036;-80
2023/01/23 04:13:41;;;;;;;44.03;23.45;;;;;;;0.57;100.00;103479.72;5234236;28;20021;-80
2023/01/23 04:16:13;;;;;;;44.47;23.80;;;;;;;0.60;100.00;103475.31;5230568;28;20109;-80
2023/01/23 04:18:44;;;;;;;47.97;24.38;;;;;;;0.63;100.00;103473.56;5236675;28;20109;-80
2023/01/23 04:21:17;;;;;;;45.50;24.42;;;;;;;0.66;100.00;103468.25;5235426;28;20046;-80
2023/01/23 04:23:48;;;;;;;40.63;24.15;;;;;;;0.66;100.00;103477.91;5238484;28;20040;-80
2023/01/23 04:26:19;;;;;;;36.42;23.10;;;;;;;0.60;100.00;103467.44;5235571;28;20073;-80
2023/01/23 04:28:51;;;;;;;42.08;25.38;;;;;;;0.82;100.00;103478.63;5236760;28;20018;-79
2023/01/23 04:31:22;;;;;;;49.03;26.45;;;;;;;0.67;100.00;103477.03;5233631;28;20041;-79
2023/01/23 04:33:53;;;;;;;44.55;23.67;;;;;;;0.60;100.00;103485.84;5235156;28;20038;-80
2023/01/23 04:36:24;;;;;;;46.15;25.13;;;;;;;0.59;100.00;103487.59;5236865;28;20101;-81
2023/01/23 04:38:57;;;;;;;49.88;25.33;;;;;;;0.69;100.00;103485.78;5230109;28;20092;-80
2023/01/23 04:41:30;;;;;;;52.33;25.95;;;;;;;0.52;100.00;103481.50;5233326;28;20064;-80
2023/01/23 04:44:21;;;;;;;50.25;25.25;;;;;;;0.63;100.00;103496.31;5233131;28;20026;-80
2023/01/23 04:46:53;;;;;;;44.92;23.33;;;;;;;0.73;100.00;103493.59;5232579;28;20138;-80
2023/01/23 04:49:25;;;;;;;44.67;24.42;;;;;;;0.65;100.00;103492.81;5234502;28;20030;-80
2023/01/23 04:51:56;;;;;;;46.92;25.45;;;;;;;0.68;100.00;103487.50;5235920;28;20064;-80
2023/01/23 04:54:27;;;;;;;46.30;24.17;;;;;;;0.64;100.00;103487.56;5234333;28;20026;-80
2023/01/23 04:56:59;;;;;;;47.85;26.38;;;;;;;0.68;100.00;103492.75;5237664;28;20032;-80
2023/01/23 04:59:30;;;;;;;44.17;24.40;;;;;;;0.65;100.00;103492.81;5236031;28;20021;-80
2023/01/23 05:02:01;;;;;;;44.90;25.80;;;;;;;0.65;100.00;103502.44;5240649;28;20036;-80
2023/01/23 05:04:33;;;;;;;42.58;24.60;;;;;;;0.71;100.00;103507.66;5239024;28;20026;-80
2023/01/23 05:07:04;;;;;;;48.03;24.35;;;;;;;0.66;100.00;103509.44;5239086;28;20041;-79
2023/01/23 05:09:35;;;;;;;44.08;24.98;;;;;;;0.67;100.00;103508.56;5236204;28;20022;-80
2023/01/23 05:12:07;;;;;;;44.03;23.90;;;;;;;0.60;100.00;103502.50;5236420;28;20030;-80
2023/01/23 05:14:38;;;;;;;44.40;25.80;;;;;;;0.66;100.00;103502.41;5234708;28;20117;-80
2023/01/23 05:17:09;;;;;;;46.10;24.52;;;;;;;0.75;100.00;103502.38;5247519;28;20037;-80
2023/01/23 05:19:40;;;;;;;53.35;25.52;;;;;;;0.62;100.00;103505.97;5231638;28;20145;-80
2023/01/23 05:22:12;;;;;;;49.22;26.10;;;;;;;0.69;100.00;103514.69;5237135;28;20038;-80
2023/01/23 05:24:43;;;;;;;47.50;24.73;;;;;;;0.71;100.00;103510.28;5232250;28;20030;-80
2023/01/23 05:27:15;;;;;;;43.58;24.80;;;;;;;0.75;100.00;103512.88;5229650;28;20038;-80
2023/01/23 05:29:46;;;;;;;54.60;27.42;;;;;;;0.65;100.00;103513.84;5234833;28;20026;-80
2023/01/23 05:32:17;;;;;;;54.55;25.70;;;;;;;0.64;100.00;103516.47;5232983;28;20064;-80
2023/01/23 05:34:49;;;;;;;44.72;25.15;;;;;;;0.59;100.00;103511.25;5234917;28;20102;-80
2023/01/23 05:37:24;;;;;;;50.70;25.42;;;;;;;0.61;100.00;103522.59;5238082;28;20022;-80
2023/01/23 05:39:55;;;;;;;47.17;24.10;;;;;;;0.94;100.00;103515.31;5235449;28;20033;-80
2023/01/23 05:42:26;;;;;;;47.83;22.70;;;;;;;1.14;100.00;103517.75;5236831;28;20030;-80
2023/01/23 05:44:58;;;;;;;58.92;24.65;;;;;;;1.13;100.00;103521.25;5239859;28;20045;-80
2023/01/23 05:47:29;;;;;;;60.20;25.58;;;;;;;1.32;100.00;103512.28;5242675;28;20510;-80
2023/01/23 05:50:01;;;;;;;57.03;27.23;;;;;;;1.35;100.00;103518.41;5236341;28;20030;-80
2023/01/23 05:52:35;;;;;;;61.20;27.08;;;;;;;1.47;100.00;103521.78;5238530;28;20026;-80
2023/01/23 05:55:07;;;;;;;56.28;24.67;;;;;;;1.70;100.00;103526.75;5234329;28;20014;-82
2023/01/23 05:57:38;;;;;;;60.45;25.10;;;;;;;1.73;100.00;103525.84;5239198;28;20032;-81
2023/01/23 06:00:14;;;;;;;69.90;32.92;;;;;;;1.55;100.00;103523.44;5237201;28;20103;-81
2023/01/23 06:02:46;;;;;;;64.07;29.73;;;;;;;1.29;100.00;103529.84;5240903;28;20029;-81
2023/01/23 06:05:17;;;;;;;56.15;28.73;;;;;;;1.12;100.00;103530.91;5234444;28;20050;-82
2023/01/23 06:07:48;;;;;;;58.90;29.48;;;;;;;1.09;100.00;103541.47;5235073;28;20034;-81
2023/01/23 06:10:20;;;;;;;57.63;29.10;;;;;;;1.02;100.00;103541.53;5238492;28;20120;-82
2023/01/23 06:12:51;;;;;;;53.45;27.08;;;;;;;1.07;100.00;103532.72;5242467;28;20022;-82
2023/01/23 06:15:23;;;;;;;53.15;28.17;;;;;;;0.97;100.00;103536.31;5245070;28;20026;-82
2023/01/23 06:17:54;;;;;;;48.85;26.58;;;;;;;0.86;100.00;103541.69;5255389;28;20091;-82
2023/01/23 06:20:26;;;;;;;62.13;30.17;;;;;;;0.96;100.00;103546.84;5249518;28;20064;-82
2023/01/23 06:22:57;;;;;;;55.58;28.20;;;;;;;0.91;100.00;103539.88;5257163;28;20033;-82
2023/01/23 06:25:28;;;;;;;51.28;25.52;;;;;;;0.91;100.00;103546.88;5257528;28;20160;-82
2023/01/23 06:28:00;;;;;;;49.90;26.38;;;;;;;0.91;100.00;103539.88;5257644;28;20022;-80
2023/01/23 06:30:32;;;;;;;50.45;26.42;;;;;;;0.94;100.00;103547.72;5246468;28;20053;-82
2023/01/23 06:33:03;;;;;;;58.55;29.05;;;;;;;0.93;100.00;103534.63;5253214;28;20556;-81
2023/01/23 06:35:34;;;;;;;49.13;25.77;;;;;;;0.91;100.00;103553.03;5252601;28;20025;-80
2023/01/23 06:38:05;;;;;;;52.03;27.45;;;;;;;0.91;100.00;103541.63;5254605;28;23702;-82
2023/01/23 06:40:37;;;;;;;53.03;28.60;;;;;;;0.90;100.00;103550.41;5255718;28;20108;-80
2023/01/23 06:43:08;;;;;;;52.05;27.98;;;;;;;0.91;100.00;103546.88;5267040;28;20018;-80
2023/01/23 06:45:43;;;;;;;54.58;28.58;;;;;;;0.97;100.00;103538.94;5255774;28;20041;-80
2023/01/23 06:48:15;;;;;;;51.92;28.13;;;;;;;0.91;100.00;103547.75;5256066;28;20028;-79
2023/01/23 06:50:46;;;;;;;54.13;27.08;;;;;;;1.02;100.00;103558.19;5259826;28;20026;-80
2023/01/23 06:53:18;;;;;;;51.67;25.45;;;;;;;0.96;100.00;103550.34;5261840;28;20056;-80
2023/01/23 06:55:49;;;;;;;51.22;27.00;;;;;;;1.00;100.00;103554.69;5255760;28;20410;-80
2023/01/23 06:58:21;;;;;;;44.72;24.70;;;;;;;0.84;100.00;103559.22;5258094;28;20034;-80
2023/01/23 07:00:52;;;;;;;49.75;25.08;;;;;;;0.86;100.00;103554.81;5256521;28;20029;-80
2023/01/23 07:03:23;;;;;;;46.90;25.75;;;;;;;0.93;100.00;103560.91;5251965;28;20041;-80
2023/01/23 07:05:54;;;;;;;47.63;25.45;;;;;;;0.95;100.00;103564.38;5258689;28;20445;-80
2023/01/23 07:08:27;;;;;;;46.35;25.95;;;;;;;1.04;100.00;103566.91;5255183;28;20374;-81
2023/01/23 07:10:59;;;;;;;47.70;25.92;;;;;;;0.87;100.00;103560.94;5255899;28;20040;-80
2023/01/23 07:13:31;;;;;;;48.20;26.65;;;;;;;0.91;100.00;103568.78;5252354;28;20041;-80
2023/01/23 07:16:03;;;;;;;46.60;26.15;;;;;;;0.89;100.00;103570.53;5245843;28;20064;-81
2023/01/23 07:18:34;;;;;;;46.65;26.83;;;;;;;0.92;100.00;103573.16;5252629;28;20036;-81
2023/01/23 07:21:06;;;;;;;43.85;25.00;;;;;;;1.02;100.00;103576.56;5258677;28;20042;-81
2023/01/23 07:23:37;;;;;;;47.72;26.17;;;;;;;0.94;100.00;103576.63;5255999;28;20037;-81
2023/01/23 07:26:10;;;;;;;44.65;25.88;;;;;;;0.84;100.00;103571.47;5255254;28;20033;-81
2023/01/23 07:28:42;;;;;;;43.65;25.00;;;;;;;0.99;100.00;103584.47;5257751;28;20026;-81
2023/01/23 07:31:13;;;;;;;41.25;23.85;;;;;;;1.09;100.00;103593.19;5258064;28;20358;-81
2023/01/23 07:33:45;;;;;;;47.95;25.92;;;;;;;1.01;100.00;103595.84;5241027;28;20041;-81
2023/01/23 07:36:17;;;;;;;46.13;25.02;;;;;;;0.89;100.00;103601.22;5255719;28;20037;-81
2023/01/23 07:38:48;;;;;;;40.80;24.75;;;;;;;0.83;100.00;103607.41;5257288;28;20467;-81
2023/01/23 07:41:19;;;;;;;46.22;26.75;;;;;;;1.00;100.00;103598.50;5254897;28;20030;-81
2023/01/23 07:43:51;;;;;;;39.95;24.35;;;;;;;0.99;100.00;103596.75;5259487;28;20336;-81
2023/01/23 07:46:24;;;;;;;43.85;25.20;;;;;;;1.01;100.00;103608.13;5255748;28;20137;-81
2023/01/23 07:48:55;;;;;;;39.78;23.88;;;;;;;0.97;100.00;103601.16;5259786;28;20143;-82
2023/01/23 07:51:27;;;;;;;36.72;22.75;;;;;;;0.94;100.00;103609.94;5253411;28;20578;-82
2023/01/23 07:53:58;;;;;;;38.20;23.08;;;;;;;1.09;100.00;103603.69;5257969;28;20061;-81
2023/01/23 07:56:29;;;;;;;41.47;24.67;;;;;;;1.03;100.00;103609.84;5257371;28;20423;-82
2023/01/23 07:59:01;;;;;;;43.72;25.30;;;;;;;1.05;100.00;103616.00;5258438;28;20036;-81
2023/01/23 08:01:32;;;;;;;44.53;25.58;;;;;;;1.10;100.00;103624.69;5255242;28;20037;-82
2023/01/23 08:04:03;;;;;;;42.45;24.40;;;;;;;1.07;100.00;103621.22;5256823;28;20148;-82
2023/01/23 08:06:35;;;;;;;38.95;22.95;;;;;;;0.95;100.00;103622.19;5262976;28;20034;-82
2023/01/23 08:09:06;;;;;;;41.83;24.85;;;;;;;1.15;100.00;103626.41;5261812;28;20056;-82
2023/01/23 08:11:39;;;;;;;47.53;26.60;;;;;;;1.09;100.00;103612.44;5240017;28;20176;-81
2023/01/23 08:14:11;;;;;;;39.40;23.52;;;;;;;1.22;100.00;103620.22;5255383;28;20088;-81
2023/01/23 08:16:42;;;;;;;40.50;24.98;;;;;;;1.25;100.00;103621.06;5260067;28;20033;-81
2023/01/23 08:19:13;;;;;;;42.15;25.40;;;;;;;1.20;100.00;103616.75;5262946;28;20097;-81
2023/01/23 08:21:46;;;;;;;42.35;25.10;;;;;;;1.31;100.00;103615.75;5263943;28;20029;-81
2023/01/23 08:24:17;;;;;;;40.88;24.65;;;;;;;1.31;100.00;103622.75;5262518;28;20033;-81
2023/01/23 08:26:48;;;;;;;40.10;23.65;;;;;;;1.38;100.00;103621.81;5261457;28;20518;-81
2023/01/23 08:29:19;;;;;;;38.25;23.60;;;;;;;1.46;100.00;103625.25;5261824;28;20029;-81
2023/01/23 08:31:53;;;;;;;37.05;24.08;;;;;;;1.44;100.00;103628.78;5263540;28;20045;-81
2023/01/23 08:34:25;;;;;;;39.33;24.33;;;;;;;1.38;100.00;103629.69;5264805;28;20049;-80
2023/01/23 08:36:56;;;;;;;42.47;23.90;;;;;;;1.29;100.00;103629.78;5262576;28;20072;-79
2023/01/23 08:39:28;;;;;;;35.97;23.65;;;;;;;1.37;100.00;103645.50;5256180;28;20041;-80
2023/01/23 08:41:59;;;;;;;38.08;23.23;;;;;;;1.40;100.00;103635.81;5263670;28;20438;-80
2023/01/23 08:44:33;;;;;;;40.63;23.08;;;;;;;1.45;100.00;103639.28;5261326;28;20424;-81
2023/01/23 08:47:04;;;;;;;41.00;24.58;;;;;;;1.51;100.00;103644.50;5259265;28;20048;-81
2023/01/23 08:49:35;;;;;;;37.78;24.40;;;;;;;1.56;100.00;103635.66;5258964;28;20025;-81
2023/01/23 08:52:07;;;;;;;38.85;24.98;;;;;;;1.55;100.00;103645.31;5259059;28;20453;-81
2023/01/23 08:54:38;;;;;;;39.58;24.90;;;;;;;1.54;100.00;103646.19;5257925;28;20060;-81
2023/01/23 08:57:09;;;;;;;35.72;23.85;;;;;;;1.51;100.00;103646.25;5258327;28;20025;-82
2023/01/23 08:59:41;;;;;;;37.28;24.73;;;;;;;1.59;100.00;103644.41;5258681;28;20056;-81
2023/01/23 09:02:12;;;;;;;37.28;25.27;;;;;;;1.68;100.00;103638.16;5255856;28;20091;-81
2023/01/23 09:04:45;;;;;;;32.65;23.27;;;;;;;1.57;100.00;103643.53;5257899;28;20025;-81
2023/01/23 09:07:16;;;;;;;38.60;24.67;;;;;;;1.66;100.00;103642.59;5259792;28;20065;-80
2023/01/23 09:09:47;;;;;;;33.83;23.17;;;;;;;1.62;100.00;103648.78;5262249;28;20065;-81
2023/01/23 09:12:19;;;;;;;35.70;23.50;;;;;;;1.77;100.00;103647.72;5258025;28;20028;-80
2023/01/23 09:14:50;;;;;;;35.08;23.98;;;;;;;1.63;100.00;103651.41;5256318;28;20081;-81
2023/01/23 09:17:21;;;;;;;30.98;21.88;;;;;;;1.65;100.00;103660.13;5260330;28;20025;-81
2023/01/23 09:19:53;;;;;;;32.25;21.92;;;;;;;1.83;100.00;103656.44;5253981;28;20037;-81
2023/01/23 09:22:24;;;;;;;40.28;25.38;;;;;;;1.80;100.00;103647.69;5261691;28;20437;-81
2023/01/23 09:24:55;;;;;;;36.20;23.42;;;;;;;1.83;100.00;103648.53;5261090;28;20065;-81
2023/01/23 09:27:27;;;;;;;35.10;23.60;;;;;;;1.99;100.00;103643.09;5264434;28;20033;-81
2023/01/23 09:29:58;;;;;;;37.45;23.83;;;;;;;2.07;100.00;103639.50;5265271;28;20021;-81
2023/01/23 09:32:32;;;;;;;35.78;23.80;;;;;;;2.25;100.00;103633.09;5262516;28;20033;-81
2023/01/23 09:35:04;;;;;;;34.63;23.65;;;;;;;2.44;100.00;103640.78;5244603;28;20030;-81
2023/01/23 09:40:30;;;;;;;29.67;21.63;;;;;;;2.82;100.00;103641.97;5259821;28;20034;-80
2023/01/23 09:43:15;;;;;;;33.45;24.02;;;;;;;2.95;100.00;103643.53;5255205;28;20028;-80
2023/01/23 09:46:06;;;;;;;32.13;23.42;;;;;;;3.02;100.00;103646.94;5266274;28;20033;-80
2023/01/23 09:48:52;;;;;;;30.63;21.65;;;;;;;2.92;100.00;103651.47;5265163;28;20509;-80
2023/01/23 09:51:41;;;;;;;29.10;19.38;;;;;;;2.79;100.00;103655.22;5260978;28;20033;-80
2023/01/23 09:54:52;;;;;;;25.42;19.65;;;;;;;2.90;100.00;103660.31;5264275;28;20141;-81
2023/01/23 09:57:29;;;;;;;28.38;21.58;;;;;;;2.73;100.00;103668.47;5263537;28;20029;-81
2023/01/23 10:00:10;;;;;;;27.95;19.27;;;;;;;2.69;100.00;103672.06;5264106;28;20474;-81
2023/01/23 10:02:43;;;;;;;27.33;20.17;;;;;;;2.49;100.00;103664.41;5263877;28;20517;-81
2023/01/23 10:05:17;;;;;;;30.10;20.92;;;;;;;2.48;100.00;103663.53;5265041;28;20048;-81
2023/01/23 10:08:03;;;;;;;29.00;18.73;;;;;;;2.57;100.00;103663.41;5246064;28;20018;-81
2023/01/23 10:10:49;;;;;;;29.20;19.30;;;;;;;2.54;100.00;103666.13;5265397;28;20021;-80
2023/01/23 10:13:53;;;;;;;27.45;19.25;;;;;;;2.68;100.00;103665.88;5263586;28;20029;-80
2023/01/23 10:16:56;;;;;;;25.67;18.40;;;;;;;2.61;100.00;103659.84;5264015;28;20025;-82
2023/01/23 10:19:54;;;;;;;31.17;20.77;;;;;;;2.63;100.00;103657.22;5246590;28;20053;-79
2023/01/23 10:22:45;;;;;;;27.58;19.13;;;;;;;2.60;100.00;103660.75;5264110;28;20570;-80
2023/01/23 10:25:21;;;;;;;28.23;19.08;;;;;;;2.71;100.00;103675.53;5264429;28;20133;-79
2023/01/23 10:27:59;;;;;;;29.40;20.33;;;;;;;2.77;100.00;103667.53;5262633;28;20041;-80
2023/01/23 10:30:37;;;;;;;28.58;19.30;;;;;;;2.64;100.00;103669.47;5263798;28;20470;-80
2023/01/23 10:33:17;;;;;;;24.05;18.08;;;;;;;2.79;100.00;103671.03;5263364;28;20058;-80
2023/01/23 10:35:50;;;;;;;31.55;21.05;;;;;;;2.88;100.00;103670.03;5263253;28;20029;-79
2023/01/23 10:38:27;;;;;;;28.65;20.75;;;;;;;2.95;100.00;103667.25;5245150;28;20032;-80
2023/01/23 10:41:14;;;;;;;25.58;19.02;;;;;;;2.78;100.00;103659.59;5263909;28;20030;-79
2023/01/23 10:43:48;;;;;;;27.90;19.40;;;;;;;2.98;100.00;103661.03;5264050;28;20025;-80
2023/01/23 10:46:27;;;;;;;27.70;20.05;;;;;;;3.03;100.00;103665.38;5262778;28;20125;-78
2023/01/23 10:49:00;;;;;;;24.27;19.17;;;;;;;3.02;100.00;103658.34;5262999;28;20029;-79
2023/01/23 10:51:37;;;;;;;27.60;19.17;;;;;;;3.14;100.00;103665.19;5264025;28;20363;-80
2023/01/23 10:54:18;;;;;;;28.77;19.80;;;;;;;3.03;100.00;103664.50;5263226;28;20040;-81
2023/01/23 10:57:17;;;;;;;28.20;18.05;;;;;;;3.15;100.00;103655.50;5260451;28;20060;-80
2023/01/23 10:59:48;;;;;;;24.52;18.65;;;;;;;3.08;100.00;103652.09;5262575;28;20029;-80
2023/01/23 11:02:44;;;;;;;27.23;19.00;;;;;;;3.17;100.00;103632.63;5245346;28;20099;-80
2023/01/23 11:05:40;;;;;;;28.52;20.20;;;;;;;3.37;100.00;103656.03;5262744;28;20033;-80
2023/01/23 11:08:28;;;;;;;29.10;20.45;;;;;;;3.39;100.00;103659.50;5263198;28;20028;-80
2023/01/23 11:11:22;;;;;;;26.05;18.88;;;;;;;3.51;100.00;103651.38;5244525;28;20025;-80
2023/01/23 11:14:21;;;;;;;26.38;19.55;;;;;;;3.64;100.00;103645.88;5262042;28;20026;-80
2023/01/23 11:17:12;;;;;;;25.65;18.92;;;;;;;3.58;100.00;103654.78;5257447;28;20044;-80
2023/01/23 11:19:47;;;;;;;24.45;18.38;;;;;;;3.51;100.00;103654.00;5244267;28;20044;-80
2023/01/23 11:22:35;;;;;;;23.27;18.63;;;;;;;3.43;100.00;103648.00;5261456;28;20041;-80
2023/01/23 11:25:30;;;;;;;25.98;18.65;;;;;;;3.56;100.00;103653.94;5262587;28;20092;-80
2023/01/23 11:28:18;;;;;;;25.75;18.80;;;;;;;3.46;100.00;103655.00;5261693;28;20799;-80
2023/01/23 11:31:03;;;;;;;25.02;18.08;;;;;;;3.55;100.00;103662.75;5262372;28;20493;-80
2023/01/23 11:33:56;;;;;;;20.55;15.93;;;;;;;3.48;100.00;103655.84;5249830;28;20026;-81
2023/01/23 11:37:05;;;;;;;23.60;17.58;;;;;;;3.75;100.00;103643.88;5254384;28;20493;-80
2023/01/23 11:39:48;;;;;;;25.73;18.58;;;;;;;3.88;100.00;103637.47;5249035;28;20410;-81
2023/01/23 11:42:19;;;;;;;25.05;18.17;;;;;;;3.94;100.00;103639.13;5250533;28;20093;-80
2023/01/23 11:44:51;;;;;;;22.55;18.33;;;;;;;3.94;100.00;103641.75;5255043;28;20080;-80
2023/01/23 11:47:27;;;;;;;20.17;16.20;;;;;;;3.99;100.00;103645.16;5268246;28;20029;-80
2023/01/23 11:50:16;;;;;;;24.58;17.58;;;;;;;4.23;100.00;103646.44;5262946;28;20026;-80
2023/01/23 11:53:12;;;;;;;22.88;17.13;;;;;;;4.26;100.00;103646.38;5260186;28;20422;-80